Bei Facebook empfehlenBei Twitter postenGoogle plusPinterest

Das Wetter im Erzgebirge am 10.08.2017

Wetter und Klima am 10.08.2017 Holzhau im Erzgebirge (630m ü.NN)
Letzte gemessene Temperatur und Uhrzeit der Messung23:45:00 Uhr17.80 °C
Temperatur (Maximum / Höchstwert) und Uhrzeit der Messung13:45:00 Uhr19.10 °C
Temperatur (Minimum / Tiefstwert) und Uhrzeit der Messung07:15:0015.40 °C
Errechneter Absolutwert der Temperaturschwankungen zwischen Tmin und Tmax des Tages3.70 K
Errechnete Tagesmitteltemperatur17.03229 °C
Gesamt - Niederschlag des Tages (in flüssiger Form)13.47 Liter / m²
Luftdruck (Maximum / Höchstwert) und Zeitpunkt der Messung11:30:00 Uhr1015.60 hPa
Luftdruck (Minimum / Tiefstwert) und Zeitpunkt der Messung22:45:00 Uhr1011.60 hPa
Errechneter Absolutwert der Luftdruckschwankungen des Tages4.00 hPa
Höchste gemessene Windgeschwindigkeit und Uhrzeit der Messung19:00:00 Uhr29.88 km/h
Errechnete Windhäufigkeit in Relation zu den Messwerten des Tages12.50000 %
Niedrigste Windkühle (Windchill) und Zeitpunkt der Messung07:15:00 Uhr15.40 °C
Taupunkt (Maximum / Höchstwert) und Uhrzeit der Messung23:30:00 Uhr16.80 °C
Taupunkt (Minimum / Tiefstwert) und Uhrzeit der Messung01:15:0013.90 °C
Anzahl der automatisch eingelesenen Messwerte 96

Detaillierte Wetter- und Klima- Messwerte für den 10.08.2017 in Holzhau im Erzgebirge (630m ü.NN)
ZeitTemperaturLuftdruckRel. LuftfeuchteWindWindrichtungWindchillTaupunktNiederschlag l/m²
23:45:0017.80 °C1011.70 hPa93.00 %20.88 km/hSO18.50 °C16.70 °C13.47
23:30:0017.90 °C1011.90 hPa93.00 %23.40 km/hSO18.50 °C16.80 °C13.47
23:15:0017.90 °C1011.80 hPa93.00 %16.80 °C13.47
23:00:0017.90 °C1011.90 hPa93.00 %24.48 km/hSSO18.40 °C16.80 °C13.47
22:45:0017.90 °C1011.60 hPa93.00 %3.96 km/hONO17.90 °C16.80 °C13.47
22:30:0017.80 °C1012.00 hPa92.00 %12.96 km/hSO17.80 °C16.50 °C13.47
22:15:0017.80 °C1012.10 hPa92.00 %16.50 °C13.47
22:00:0017.80 °C1012.50 hPa92.00 %16.50 °C13.47
21:45:0017.80 °C1012.40 hPa92.00 %18.00 km/hSO18.60 °C16.50 °C13.47
21:30:0017.80 °C1012.50 hPa92.00 %16.50 °C13.47
21:15:0017.60 °C1012.40 hPa92.00 %16.30 °C13.47
21:00:0017.60 °C1012.60 hPa92.00 %11.52 km/hSO17.60 °C16.30 °C13.47
20:45:0017.50 °C1012.40 hPa91.00 %10.44 km/hSSO17.50 °C16.00 °C13.47
20:30:0017.50 °C1012.50 hPa91.00 %27.36 km/hSO17.90 °C16.00 °C13.47
20:15:0017.50 °C1012.60 hPa90.00 %15.80 °C13.47
20:00:0017.60 °C1012.90 hPa89.00 %15.80 °C13.47
19:45:0017.60 °C1013.10 hPa89.00 %15.80 °C13.47
19:30:0017.70 °C1013.30 hPa89.00 %15.90 °C13.47
19:15:0017.90 °C1013.20 hPa88.00 %15.90 °C13.47
19:00:0018.30 °C1013.30 hPa87.00 %29.88 km/hSO18.70 °C16.10 °C13.47
18:45:0018.30 °C1013.50 hPa87.00 %16.10 °C13.47
18:30:0018.20 °C1013.50 hPa88.00 %16.20 °C13.47
18:15:0017.90 °C1013.60 hPa88.00 %15.90 °C13.47
18:00:0017.90 °C1013.60 hPa88.00 %15.90 °C13.47
17:45:0017.80 °C1013.50 hPa89.00 %16.00 °C13.47
17:30:0017.40 °C1013.70 hPa89.00 %15.60 °C13.47
17:15:0017.30 °C1014.20 hPa89.00 %15.50 °C13.47
17:00:0017.30 °C1014.70 hPa89.00 %15.50 °C13.47
16:45:0017.30 °C1014.80 hPa88.00 %15.30 °C13.47
16:30:0017.50 °C1014.60 hPa88.00 %15.50 °C13.47
16:15:0017.60 °C1014.40 hPa88.00 %15.60 °C13.47
16:00:0017.80 °C1014.20 hPa88.00 %15.80 °C13.47
15:45:0017.90 °C1014.50 hPa87.00 %15.70 °C13.47
15:30:0017.90 °C1014.40 hPa87.00 %15.70 °C13.47
15:15:0017.90 °C1014.50 hPa87.00 %15.70 °C13.47
15:00:0017.80 °C1014.60 hPa87.00 %15.60 °C13.47
14:45:0017.90 °C1014.60 hPa86.00 %15.50 °C13.47
14:30:0017.90 °C1014.80 hPa86.00 %15.50 °C13.47
14:15:0018.30 °C1014.80 hPa84.00 %15.60 °C13.47
14:00:0018.90 °C1014.50 hPa84.00 %16.10 °C13.47
13:45:0019.10 °C1014.80 hPa84.00 %16.30 °C13.47
13:30:0018.70 °C1014.70 hPa87.00 %16.50 °C13.47
13:15:0018.40 °C1014.80 hPa85.00 %3.96 km/hSSO18.40 °C15.80 °C13.47
13:00:0017.90 °C1015.00 hPa86.00 %15.50 °C13.47
12:45:0018.10 °C1015.10 hPa86.00 %15.70 °C13.47
12:30:0018.50 °C1015.00 hPa85.00 %15.90 °C13.47
12:15:0018.40 °C1015.10 hPa86.00 %16.00 °C13.47
12:00:0018.40 °C1015.20 hPa87.00 %16.20 °C13.47
11:45:0018.10 °C1015.50 hPa89.00 %16.30 °C13.47
11:30:0017.70 °C1015.60 hPa90.00 %16.00 °C13.47
11:15:0017.10 °C1015.30 hPa91.00 %15.60 °C13.47
11:00:0016.80 °C1015.50 hPa91.00 %15.30 °C13.47
10:45:0016.40 °C1015.50 hPa92.00 %15.10 °C13.47
10:30:0016.10 °C1015.30 hPa92.00 %14.80 °C13.47
10:15:0015.90 °C1015.50 hPa91.00 %14.40 °C13.47
10:00:0016.20 °C1015.60 hPa91.00 %14.70 °C13.47
09:45:0016.10 °C1015.30 hPa91.00 %14.60 °C13.47
09:30:0016.40 °C1015.10 hPa90.00 %14.80 °C13.47
09:15:0017.10 °C1014.90 hPa91.00 %15.60 °C13.47
09:00:0017.10 °C1014.50 hPa91.00 %15.60 °C13.47
08:45:0016.90 °C1014.60 hPa93.00 %15.80 °C13.47
08:30:0016.80 °C1014.40 hPa94.00 %15.80 °C13.47
08:15:0016.30 °C1014.10 hPa94.00 %15.30 °C13.47
08:00:0016.10 °C1013.80 hPa95.00 %15.30 °C13.47
07:45:0015.90 °C1013.90 hPa95.00 %15.10 °C13.47
07:30:0015.60 °C1013.80 hPa95.00 %14.80 °C13.47
07:15:0015.40 °C1013.80 hPa94.00 %14.40 °C13.47
07:00:0015.60 °C1013.90 hPa94.00 %14.60 °C13.47
06:45:0015.50 °C1013.50 hPa94.00 %14.50 °C13.47
06:30:0015.50 °C1013.80 hPa94.00 %14.50 °C13.47
06:15:0015.80 °C1013.80 hPa94.00 %14.80 °C13.47
06:00:0015.80 °C1013.20 hPa94.00 %14.80 °C13.47
05:45:0015.80 °C1012.70 hPa94.00 %14.80 °C13.47
05:30:0015.80 °C1012.50 hPa94.00 %14.80 °C13.47
05:15:0015.80 °C1012.50 hPa94.00 %14.80 °C13.47
05:00:0015.80 °C1012.20 hPa94.00 %14.80 °C13.47
04:45:0015.80 °C1012.20 hPa94.00 %14.80 °C13.47
04:30:0015.80 °C1012.40 hPa94.00 %14.80 °C13.47
04:15:0015.80 °C1012.60 hPa94.00 %14.80 °C13.47
04:00:0015.90 °C1012.80 hPa93.00 %14.80 °C13.47
03:45:0015.80 °C1013.30 hPa93.00 %14.70 °C13.47
03:30:0015.80 °C1013.30 hPa93.00 %14.70 °C13.47
03:15:0015.70 °C1013.60 hPa93.00 %14.60 °C13.47
03:00:0015.60 °C1013.60 hPa93.00 %14.50 °C13.47
02:45:0015.60 °C1013.30 hPa93.00 %14.50 °C13.47
02:30:0015.50 °C1013.10 hPa92.00 %14.20 °C13.47
02:15:0015.50 °C1013.00 hPa92.00 %14.20 °C13.47
02:00:0015.50 °C1013.10 hPa91.00 %14.00 °C12.95
01:45:0015.60 °C1013.90 hPa91.00 %3.96 km/hSO15.60 °C14.10 °C12.43
01:30:0015.60 °C1013.80 hPa90.00 %14.00 °C10.88
01:15:0015.70 °C1014.00 hPa89.00 %13.90 °C6.73
01:00:0015.90 °C1013.40 hPa88.00 %13.90 °C5.18
00:45:0016.60 °C1014.50 hPa85.00 %14.10 °C2.59
00:30:0017.60 °C1014.80 hPa80.00 %14.10 °C 
00:15:0017.80 °C1012.60 hPa80.00 %14.30 °C 
00:00:0017.10 °C1012.90 hPa82.00 %14.00 °C 

Permanenter Link zu dieser Seite: Wetter im Erzgebirge am 10.08.2017
Performance-Info: Die Erstellung der Seite / Statistik(en) / Tabelle(n) erforderte 5 Datenbankserver-Abfrage(n) und dauerte 98 Millisekunden. (Dieser Messwert ist von der Gesamt-Auslastung des Servers abhängig.)
Erzgebirge - Wetter | Erzgebirge - Wetter (Mobilgeräte) | Komplette Klimadatenbank